Time;durP1;ratioP1;P1;durP2;ratioP2;P2;SDS_P1;SDS_P2;PMS_P1;PMS_P2;Temp;Humidity;BMP_temperature;BMP_pressure;BME280_temperature;BME280_humidity;BME280_pressure;Samples;Min_cycle;Max_cycle;Signal;HPM_P1;HPM_P2
2023/01/19 00:03:16;;;;;;;2.90;2.50;;;;;;;;;;10430094;28;20252;-74
2023/01/19 00:08:18;;;;;;;3.90;2.10;;;;;;;;;;10430439;28;20214;-75
2023/01/19 00:13:19;;;;;;;3.00;1.80;;;;;;;;;;10443283;28;20650;-75
2023/01/19 00:18:20;;;;;;;2.33;2.13;;;;;;;;;;10429143;28;20214;-75
2023/01/19 00:23:21;;;;;;;4.63;2.37;;;;;;;;;;10422707;28;20222;-75
2023/01/19 00:28:22;;;;;;;2.73;1.80;;;;;;;;;;10429687;28;20215;-75
2023/01/19 00:33:23;;;;;;;2.10;1.93;;;;;;;;;;10428691;28;20380;-74
2023/01/19 00:38:24;;;;;;;1.60;1.37;;;;;;;;;;10409980;28;20206;-74
2023/01/19 00:43:27;;;;;;;4.07;2.03;;;;;;;;;;10420974;28;20202;-75
2023/01/19 00:48:28;;;;;;;2.33;1.87;;;;;;;;;;10423728;28;20876;-76
2023/01/19 00:53:31;;;;;;;4.87;1.83;;;;;;;;;;10414759;28;20218;-75
2023/01/19 00:58:32;;;;;;;2.30;1.67;;;;;;;;;;10427989;28;20576;-75
2023/01/19 01:03:33;;;;;;;5.50;2.37;;;;;;;;;;10426011;28;20233;-75
2023/01/19 01:08:34;;;;;;;5.27;2.17;;;;;;;;;;10427068;28;20218;-75
2023/01/19 01:13:35;;;;;;;2.87;2.30;;;;;;;;;;10401164;28;20245;-76
2023/01/19 01:18:36;;;;;;;3.43;2.77;;;;;;;;;;10427491;28;20214;-75
2023/01/19 01:23:38;;;;;;;3.53;2.23;;;;;;;;;;10424443;28;20926;-75
2023/01/19 01:28:39;;;;;;;2.53;2.30;;;;;;;;;;10426817;28;20211;-75
2023/01/19 01:33:40;;;;;;;4.13;2.27;;;;;;;;;;10391679;28;20227;-75
2023/01/19 01:38:41;;;;;;;8.57;2.83;;;;;;;;;;10419674;28;20214;-75
2023/01/19 01:43:50;;;;;;;5.53;2.50;;;;;;;;;;10425363;28;20310;-74
2023/01/19 01:49:00;;;;;;;5.77;2.73;;;;;;;;;;10424724;28;20275;-75
2023/01/19 01:54:11;;;;;;;2.97;2.63;;;;;;;;;;10421929;28;20268;-74
2023/01/19 01:59:24;;;;;;;4.20;2.83;;;;;;;;;;10426261;28;20233;-75
2023/01/19 02:04:25;;;;;;;5.67;2.93;;;;;;;;;;10420185;28;20222;-73
2023/01/19 02:14:49;;;;;;;3.60;2.13;;;;;;;;;;10421071;28;20222;-75
2023/01/19 02:19:50;;;;;;;3.27;2.53;;;;;;;;;;10417998;28;20332;-75
2023/01/19 02:24:52;;;;;;;2.50;2.30;;;;;;;;;;10419946;28;20211;-77
2023/01/19 02:29:53;;;;;;;4.07;2.53;;;;;;;;;;10417577;28;20318;-76
2023/01/19 02:34:54;;;;;;;3.10;2.80;;;;;;;;;;10400090;28;20910;-73
2023/01/19 02:39:57;;;;;;;3.10;2.30;;;;;;;;;;10403049;28;20206;-75
2023/01/19 02:44:58;;;;;;;2.60;1.77;;;;;;;;;;10399628;28;20217;-75
2023/01/19 02:50:01;;;;;;;2.73;1.97;;;;;;;;;;10385340;28;20253;-74
2023/01/19 02:55:17;;;;;;;5.47;2.33;;;;;;;;;;10401741;28;20271;-74
2023/01/19 03:00:33;;;;;;;4.83;2.27;;;;;;;;;;10420161;28;20627;-77
2023/01/19 03:05:57;;;;;;;4.07;2.47;;;;;;;;;;10419860;28;20218;-76
2023/01/19 03:11:02;;;;;;;3.00;2.30;;;;;;;;;;10414079;28;20218;-74
2023/01/19 03:16:10;;;;;;;6.33;2.23;;;;;;;;;;10408736;28;20274;-76
2023/01/19 03:21:12;;;;;;;4.13;3.50;;;;;;;;;;10430388;28;20218;-76
2023/01/19 03:26:15;;;;;;;6.43;3.23;;;;;;;;;;10419752;28;20210;-76
2023/01/19 03:31:22;;;;;;;4.83;2.93;;;;;;;;;;10423931;28;20227;-75
2023/01/19 03:36:26;;;;;;;5.60;2.83;;;;;;;;;;10427080;28;20214;-76
2023/01/19 03:41:28;;;;;;;3.43;3.10;;;;;;;;;;10425703;28;20268;-77
2023/01/19 03:46:30;;;;;;;4.73;2.70;;;;;;;;;;10418524;28;20211;-76
2023/01/19 03:51:34;;;;;;;3.83;2.80;;;;;;;;;;10426885;28;20214;-76
2023/01/19 03:56:35;;;;;;;6.33;2.97;;;;;;;;;;10408120;28;20238;-76
2023/01/19 04:01:37;;;;;;;7.83;3.50;;;;;;;;;;10430309;28;20230;-76
2023/01/19 04:06:38;;;;;;;4.47;2.60;;;;;;;;;;10426739;28;20723;-75
2023/01/19 04:11:39;;;;;;;6.17;2.97;;;;;;;;;;10429105;28;20781;-76
2023/01/19 04:16:40;;;;;;;4.10;2.60;;;;;;;;;;10428472;28;20579;-75
2023/01/19 04:21:41;;;;;;;5.93;3.07;;;;;;;;;;10433052;28;20257;-76
2023/01/19 04:26:42;;;;;;;3.47;2.60;;;;;;;;;;10394636;28;20218;-76
2023/01/19 04:31:43;;;;;;;2.70;2.57;;;;;;;;;;10428776;28;20317;-76
2023/01/19 04:36:45;;;;;;;3.57;1.83;;;;;;;;;;10427042;28;20219;-75
2023/01/19 04:41:46;;;;;;;3.03;2.70;;;;;;;;;;10429637;28;20218;-76
2023/01/19 04:46:47;;;;;;;5.63;2.43;;;;;;;;;;10425718;28;20211;-76
2023/01/19 04:51:48;;;;;;;4.77;2.53;;;;;;;;;;10429698;28;20219;-78
2023/01/19 04:56:49;;;;;;;3.17;1.60;;;;;;;;;;10410232;28;20240;-77
2023/01/19 05:01:51;;;;;;;2.80;2.17;;;;;;;;;;10425136;28;20214;-78
2023/01/19 05:06:53;;;;;;;4.10;2.57;;;;;;;;;;10410191;28;20221;-77
2023/01/19 05:11:54;;;;;;;3.50;2.63;;;;;;;;;;10425924;28;20215;-73
2023/01/19 05:16:55;;;;;;;2.83;1.93;;;;;;;;;;10427750;28;20234;-79
2023/01/19 05:21:56;;;;;;;2.20;1.97;;;;;;;;;;10429022;28;20272;-77
2023/01/19 05:26:58;;;;;;;2.70;2.50;;;;;;;;;;10425104;28;20727;-76
2023/01/19 05:31:59;;;;;;;3.63;3.40;;;;;;;;;;10422385;28;20226;-77
2023/01/19 05:37:01;;;;;;;4.40;2.87;;;;;;;;;;10430190;28;20215;-77
2023/01/19 05:42:02;;;;;;;2.97;2.73;;;;;;;;;;10424589;28;20210;-77
2023/01/19 05:47:03;;;;;;;3.03;2.37;;;;;;;;;;10411037;28;20330;-75
2023/01/19 05:52:04;;;;;;;1.67;1.57;;;;;;;;;;10417675;28;20307;-78
2023/01/19 05:57:06;;;;;;;3.00;2.23;;;;;;;;;;10421909;28;20926;-72
2023/01/19 06:02:07;;;;;;;2.83;2.53;;;;;;;;;;10426553;28;20297;-74
2023/01/19 06:07:08;;;;;;;5.30;2.90;;;;;;;;;;10424595;28;20755;-78
2023/01/19 06:12:09;;;;;;;5.37;2.67;;;;;;;;;;10425131;28;20789;-77
2023/01/19 06:17:10;;;;;;;4.40;3.00;;;;;;;;;;10423337;28;20276;-77
2023/01/19 06:22:11;;;;;;;6.77;3.20;;;;;;;;;;10423902;28;20207;-79
2023/01/19 06:27:13;;;;;;;7.23;2.67;;;;;;;;;;10395142;28;20202;-75
2023/01/19 06:32:14;;;;;;;6.57;3.23;;;;;;;;;;10416270;28;20222;-77
2023/01/19 06:37:15;;;;;;;2.70;2.47;;;;;;;;;;10414945;28;20218;-77
2023/01/19 06:42:16;;;;;;;7.93;3.17;;;;;;;;;;10375351;28;20217;-77
2023/01/19 06:47:17;;;;;;;6.83;3.33;;;;;;;;;;10409581;28;20776;-76
2023/01/19 06:52:19;;;;;;;3.87;3.57;;;;;;;;;;10416181;28;20337;-75
2023/01/19 06:57:20;;;;;;;5.87;3.33;;;;;;;;;;10416540;28;20287;-75
2023/01/19 07:02:22;;;;;;;4.07;3.20;;;;;;;;;;10409508;28;20211;-75
2023/01/19 07:07:23;;;;;;;4.70;3.07;;;;;;;;;;10411970;28;20207;-74
2023/01/19 07:12:24;;;;;;;3.30;2.40;;;;;;;;;;10412771;28;20739;-77
2023/01/19 07:17:26;;;;;;;3.10;2.80;;;;;;;;;;10424495;28;20906;-75
2023/01/19 07:22:27;;;;;;;5.80;3.53;;;;;;;;;;10424772;28;20305;-75
2023/01/19 07:27:28;;;;;;;4.50;3.53;;;;;;;;;;10425431;28;20207;-77
2023/01/19 07:32:29;;;;;;;5.07;3.50;;;;;;;;;;10416270;28;20771;-77
2023/01/19 07:37:30;;;;;;;5.00;2.57;;;;;;;;;;10418824;28;20215;-75
2023/01/19 07:42:31;;;;;;;9.17;3.90;;;;;;;;;;10418325;28;20211;-76
2023/01/19 07:47:33;;;;;;;2.87;2.43;;;;;;;;;;10418416;28;20249;-75
2023/01/19 07:52:34;;;;;;;5.80;3.53;;;;;;;;;;10420301;28;20222;-78
2023/01/19 07:57:35;;;;;;;7.10;4.07;;;;;;;;;;10417450;28;20217;-77
2023/01/19 08:02:36;;;;;;;7.30;3.47;;;;;;;;;;10408345;28;20691;-76
2023/01/19 08:07:37;;;;;;;5.30;3.13;;;;;;;;;;10423923;28;20306;-77
2023/01/19 08:12:39;;;;;;;4.47;3.20;;;;;;;;;;10408647;28;20219;-79
2023/01/19 08:17:40;;;;;;;5.63;3.40;;;;;;;;;;10423421;28;20226;-77
2023/01/19 08:22:41;;;;;;;6.27;3.70;;;;;;;;;;10425725;28;20926;-77
2023/01/19 08:27:43;;;;;;;4.07;3.77;;;;;;;;;;10422205;28;20218;-76
2023/01/19 08:32:44;;;;;;;4.83;4.43;;;;;;;;;;10417191;28;20281;-77
2023/01/19 08:37:46;;;;;;;4.93;3.80;;;;;;;;;;10423509;28;20215;-77
2023/01/19 08:42:47;;;;;;;5.93;3.97;;;;;;;;;;10398800;28;20218;-77
2023/01/19 08:47:48;;;;;;;8.73;4.63;;;;;;;;;;10428421;28;20211;-77
2023/01/19 08:52:49;;;;;;;6.53;3.23;;;;;;;;;;10430614;28;20226;-77
2023/01/19 08:57:51;;;;;;;7.33;5.03;;;;;;;;;;10421707;28;20341;-77
2023/01/19 09:02:53;;;;;;;7.00;3.97;;;;;;;;;;10384503;28;20651;-75
2023/01/19 09:07:54;;;;;;;5.60;4.17;;;;;;;;;;10406873;28;20211;-78
2023/01/19 09:12:55;;;;;;;7.15;4.35;;;;;;;;;;10392354;28;20855;-78
2023/01/19 09:17:56;;;;;;;5.18;4.10;;;;;;;;;;10420770;28;20230;-78
2023/01/19 09:22:58;;;;;;;2.58;2.35;;;;;;;;;;10415511;28;20380;-81
2023/01/19 09:27:59;;;;;;;4.10;2.58;;;;;;;;;;10422490;28;20734;-80
2023/01/19 09:33:05;;;;;;;5.32;3.67;;;;;;;;;;10424948;28;20230;-76
2023/01/19 09:38:07;;;;;;;3.90;3.58;;;;;;;;;;10424389;28;20210;-77
2023/01/19 09:43:13;;;;;;;6.47;4.28;;;;;;;;;;10399361;28;20642;-79
2023/01/19 09:48:35;;;;;;;6.43;4.85;;;;;;;;;;10402872;28;20280;-79
2023/01/19 09:54:03;;;;;;;6.90;3.78;;;;;;;;;;10401613;28;20226;-76
2023/01/19 09:59:16;;;;;;;5.72;3.63;;;;;;;;;;10421219;28;20203;-79
2023/01/19 10:04:24;;;;;;;2.90;2.65;;;;;;;;;;10383854;28;20238;-78
2023/01/19 10:09:34;;;;;;;5.28;4.45;;;;;;;;;;10414124;28;20302;-76
2023/01/19 10:14:47;;;;;;;4.30;3.90;;;;;;;;;;10423488;28;20300;-78
2023/01/19 10:19:50;;;;;;;5.22;3.58;;;;;;;;;;10413714;28;20900;-75
2023/01/19 10:24:54;;;;;;;3.40;2.75;;;;;;;;;;10416546;28;20878;-79
2023/01/19 10:29:56;;;;;;;2.47;2.28;;;;;;;;;;10405595;28;20751;-77
2023/01/19 10:34:58;;;;;;;4.20;3.22;;;;;;;;;;10414004;28;20214;-78
2023/01/19 10:40:02;;;;;;;3.28;3.08;;;;;;;;;;10395799;28;20219;-80
2023/01/19 10:45:14;;;;;;;3.13;2.80;;;;;;;;;;10418722;28;20741;-78
2023/01/19 10:50:21;;;;;;;5.60;3.72;;;;;;;;;;10396437;28;20826;-77
2023/01/19 10:55:27;;;;;;;7.45;3.42;;;;;;;;;;10402419;28;20223;-76
2023/01/19 11:00:31;;;;;;;3.53;3.28;;;;;;;;;;10420547;28;20225;-78
2023/01/19 11:05:33;;;;;;;3.45;3.20;;;;;;;;;;10416227;28;20293;-77
2023/01/19 11:10:34;;;;;;;3.80;3.35;;;;;;;;;;10396536;28;20222;-76
2023/01/19 11:15:43;;;;;;;2.90;2.70;;;;;;;;;;10421516;28;20218;-77
2023/01/19 11:20:51;;;;;;;4.63;3.70;;;;;;;;;;10411878;28;20218;-79
2023/01/19 11:25:53;;;;;;;6.15;4.18;;;;;;;;;;10400040;28;20688;-77
2023/01/19 11:31:01;;;;;;;4.10;3.83;;;;;;;;;;10419031;28;20236;-75
2023/01/19 11:36:03;;;;;;;3.63;3.42;;;;;;;;;;10425800;28;20590;-77
2023/01/19 11:41:05;;;;;;;6.78;3.55;;;;;;;;;;10423699;28;20214;-76
2023/01/19 11:46:10;;;;;;;4.15;3.70;;;;;;;;;;10424815;28;22329;-77
2023/01/19 11:51:16;;;;;;;3.80;3.38;;;;;;;;;;10422857;28;20673;-77
2023/01/19 11:56:19;;;;;;;3.45;3.15;;;;;;;;;;10407657;28;20215;-77
2023/01/19 12:01:31;;;;;;;4.07;3.58;;;;;;;;;;10425517;28;20241;-77
2023/01/19 12:06:34;;;;;;;4.85;4.43;;;;;;;;;;10423669;28;20215;-77
2023/01/19 12:11:38;;;;;;;5.70;5.18;;;;;;;;;;10421550;28;20284;-77
2023/01/19 12:16:40;;;;;;;5.10;4.15;;;;;;;;;;10406468;28;20210;-77
2023/01/19 12:21:42;;;;;;;38.25;15.82;;;;;;;;;;10404378;28;20211;-79
2023/01/19 12:26:46;;;;;;;6.35;3.75;;;;;;;;;;10424846;28;20221;-78
2023/01/19 12:32:05;;;;;;;5.03;3.65;;;;;;;;;;10428371;28;20219;-78
2023/01/19 12:37:30;;;;;;;3.03;2.03;;;;;;;;;;10403269;28;20207;-78
2023/01/19 12:42:31;;;;;;;2.95;2.42;;;;;;;;;;10419832;28;20297;-77
2023/01/19 12:47:32;;;;;;;2.88;2.63;;;;;;;;;;10416145;28;20297;-79
2023/01/19 12:52:40;;;;;;;3.50;2.40;;;;;;;;;;10419029;28;20715;-79
2023/01/19 12:57:53;;;;;;;2.83;2.67;;;;;;;;;;10418316;28;20939;-77
2023/01/19 13:03:02;;;;;;;6.97;4.43;;;;;;;;;;10419875;28;20233;-78
2023/01/19 13:08:12;;;;;;;4.68;3.55;;;;;;;;;;10420026;28;20207;-78
2023/01/19 13:13:16;;;;;;;7.88;5.20;;;;;;;;;;10402708;28;20218;-77
2023/01/19 13:18:28;;;;;;;3.40;3.13;;;;;;;;;;10401775;28;20718;-78
2023/01/19 13:23:50;;;;;;;3.72;3.42;;;;;;;;;;10397157;28;20228;-79
2023/01/19 13:28:53;;;;;;;3.83;3.47;;;;;;;;;;10384483;28;20242;-77
2023/01/19 13:33:55;;;;;;;4.35;3.53;;;;;;;;;;10401120;28;20218;-77
2023/01/19 13:38:58;;;;;;;2.60;2.42;;;;;;;;;;10412114;28;21088;-79
2023/01/19 13:44:01;;;;;;;3.45;3.15;;;;;;;;;;10417213;28;20215;-77
2023/01/19 13:49:04;;;;;;;5.38;3.65;;;;;;;;;;10411569;28;20221;-80
2023/01/19 13:54:14;;;;;;;7.38;4.68;;;;;;;;;;10398696;28;20218;-76
2023/01/19 13:59:15;;;;;;;5.38;4.88;;;;;;;;;;10411948;28;20298;-78
2023/01/19 14:04:32;;;;;;;5.28;4.55;;;;;;;;;;10414455;28;20222;-77
2023/01/19 14:09:33;;;;;;;4.20;3.90;;;;;;;;;;10375350;28;20202;-77
2023/01/19 14:14:34;;;;;;;3.05;2.83;;;;;;;;;;10401531;28;20864;-74
2023/01/19 14:19:48;;;;;;;4.00;3.45;;;;;;;;;;10410635;28;20694;-78
2023/01/19 14:24:50;;;;;;;3.47;2.95;;;;;;;;;;10400145;28;20211;-76
2023/01/19 14:29:53;;;;;;;3.97;3.67;;;;;;;;;;10402974;28;20215;-77
2023/01/19 14:35:02;;;;;;;6.32;4.65;;;;;;;;;;10412423;28;20353;-77
2023/01/19 14:40:17;;;;;;;5.97;4.40;;;;;;;;;;10416225;28;20242;-77
2023/01/19 14:45:20;;;;;;;6.13;4.18;;;;;;;;;;10381727;28;20206;-75
2023/01/19 14:50:32;;;;;;;4.68;2.92;;;;;;;;;;10415181;28;20199;-79
2023/01/19 14:55:35;;;;;;;3.85;3.55;;;;;;;;;;10414223;28;20206;-76
2023/01/19 15:00:37;;;;;;;12.00;6.85;;;;;;;;;;10403175;28;20352;-77
2023/01/19 15:05:39;;;;;;;3.58;2.97;;;;;;;;;;10383855;28;20221;-73
2023/01/19 15:10:40;;;;;;;2.88;2.67;;;;;;;;;;10425436;28;20214;-76
2023/01/19 15:15:41;;;;;;;4.25;3.80;;;;;;;;;;10427189;28;20214;-77
2023/01/19 15:20:42;;;;;;;2.88;2.78;;;;;;;;;;10400533;28;20217;-75
2023/01/19 15:25:43;;;;;;;4.72;2.85;;;;;;;;;;10427168;28;20218;-77
2023/01/19 15:30:45;;;;;;;2.67;2.47;;;;;;;;;;10407260;28;20214;-78
2023/01/19 15:35:46;;;;;;;3.45;3.15;;;;;;;;;;10406809;28;20214;-77
2023/01/19 15:40:48;;;;;;;2.83;2.63;;;;;;;;;;10407426;28;20206;-77
2023/01/19 15:45:51;;;;;;;2.67;2.47;;;;;;;;;;10424501;28;20605;-79
2023/01/19 15:50:52;;;;;;;2.00;1.90;;;;;;;;;;10421869;28;20225;-79
2023/01/19 15:55:55;;;;;;;2.00;1.90;;;;;;;;;;10427569;28;20303;-78
2023/01/19 16:00:57;;;;;;;1.67;1.58;;;;;;;;;;10418469;28;20213;-76
2023/01/19 16:06:01;;;;;;;2.15;2.05;;;;;;;;;;10426065;28;20215;-77
2023/01/19 16:11:03;;;;;;;1.90;1.65;;;;;;;;;;10442118;28;20218;-78
2023/01/19 16:16:12;;;;;;;1.80;1.70;;;;;;;;;;10416528;28;20222;-77
2023/01/19 16:21:13;;;;;;;2.85;1.50;;;;;;;;;;10396754;28;20804;-76
2023/01/19 16:26:25;;;;;;;1.25;1.25;;;;;;;;;;10417933;28;20218;-76
2023/01/19 16:31:26;;;;;;;0.88;0.88;;;;;;;;;;10398432;28;20227;-77
2023/01/19 16:36:28;;;;;;;0.90;0.90;;;;;;;;;;10384369;28;20770;-78
2023/01/19 16:41:30;;;;;;;0.77;0.77;;;;;;;;;;10399406;28;20277;-78
2023/01/19 16:46:35;;;;;;;0.80;0.80;;;;;;;;;;10402905;28;20215;-79
2023/01/19 16:51:36;;;;;;;0.68;0.68;;;;;;;;;;10425114;28;20250;-77
2023/01/19 16:56:37;;;;;;;0.98;0.98;;;;;;;;;;10415335;28;20687;-77
2023/01/19 17:01:38;;;;;;;1.40;1.40;;;;;;;;;;10433100;28;20261;-77
2023/01/19 17:06:40;;;;;;;2.80;2.60;;;;;;;;;;10397796;28;20210;-77
2023/01/19 17:11:41;;;;;;;1.92;1.83;;;;;;;;;;10422140;28;20214;-78
2023/01/19 17:16:43;;;;;;;3.83;1.55;;;;;;;;;;10387372;28;20215;-79
2023/01/19 17:21:45;;;;;;;2.05;1.92;;;;;;;;;;10400402;28;20268;-78
2023/01/19 17:26:47;;;;;;;5.68;3.13;;;;;;;;;;10407503;28;20223;-79
2023/01/19 17:38:04;;;;;;;6.10;3.95;;;;;;;;;;10410843;28;20215;-76
2023/01/19 17:43:06;;;;;;;5.68;3.65;;;;;;;;;;10418168;28;20211;-75
2023/01/19 17:48:07;;;;;;;6.25;3.90;;;;;;;;;;10415302;28;20955;-76
2023/01/19 17:53:08;;;;;;;8.40;3.78;;;;;;;;;;10418701;28;20219;-76
2023/01/19 17:58:09;;;;;;;4.22;3.70;;;;;;;;;;10419349;28;20207;-75
2023/01/19 18:03:10;;;;;;;7.63;4.05;;;;;;;;;;10426934;28;20288;-77
2023/01/19 18:08:12;;;;;;;5.80;4.35;;;;;;;;;;10412407;28;20219;-78
2023/01/19 18:13:13;;;;;;;5.25;3.53;;;;;;;;;;10392388;28;20306;-76
2023/01/19 18:18:14;;;;;;;6.20;3.33;;;;;;;;;;10411821;28;20249;-76
2023/01/19 18:23:16;;;;;;;7.40;4.53;;;;;;;;;;10414698;28;20230;-77
2023/01/19 18:28:17;;;;;;;4.07;3.28;;;;;;;;;;10387974;28;20258;-76
2023/01/19 18:33:18;;;;;;;4.28;3.80;;;;;;;;;;10395036;28;20222;-82
2023/01/19 18:38:20;;;;;;;4.15;3.75;;;;;;;;;;10394113;28;20250;-78
2023/01/19 18:43:21;;;;;;;6.82;3.60;;;;;;;;;;10414169;28;20210;-80
2023/01/19 18:48:23;;;;;;;4.93;3.20;;;;;;;;;;10409879;28;20218;-79
2023/01/19 18:53:24;;;;;;;7.18;3.83;;;;;;;;;;10409189;28;20337;-74
2023/01/19 18:58:41;;;;;;;3.20;2.92;;;;;;;;;;10380486;28;20615;-78
2023/01/19 19:03:42;;;;;;;5.00;3.92;;;;;;;;;;10410048;28;20218;-77
2023/01/19 19:08:44;;;;;;;5.47;3.55;;;;;;;;;;10383247;28;20229;-78
2023/01/19 19:13:45;;;;;;;3.42;3.03;;;;;;;;;;10412542;28;20305;-78
2023/01/19 19:18:49;;;;;;;4.20;3.40;;;;;;;;;;10410038;28;20218;-76
2023/01/19 19:23:52;;;;;;;4.53;2.95;;;;;;;;;;10410600;28;20691;-78
2023/01/19 19:28:53;;;;;;;7.43;3.03;;;;;;;;;;10393410;28;20686;-79
2023/01/19 19:33:55;;;;;;;5.18;3.88;;;;;;;;;;10409198;28;20211;-76
2023/01/19 19:38:58;;;;;;;4.57;3.05;;;;;;;;;;10393008;28;20241;-77
2023/01/19 19:43:59;;;;;;;12.30;4.13;;;;;;;;;;10411998;28;20213;-77
2023/01/19 19:49:01;;;;;;;6.78;3.47;;;;;;;;;;10395703;28;20504;-78
2023/01/19 19:54:02;;;;;;;7.53;3.78;;;;;;;;;;10415541;28;20219;-78
2023/01/19 19:59:03;;;;;;;7.00;3.78;;;;;;;;;;10381285;28;20214;-77
2023/01/19 20:04:05;;;;;;;4.38;3.10;;;;;;;;;;10412897;28;20219;-76
2023/01/19 20:09:09;;;;;;;7.88;3.28;;;;;;;;;;10431793;28;20846;-76
2023/01/19 20:14:12;;;;;;;4.53;3.22;;;;;;;;;;10425833;28;20285;-76
2023/01/19 20:19:13;;;;;;;7.80;3.38;;;;;;;;;;10411371;28;20206;-79
2023/01/19 20:24:16;;;;;;;4.78;3.92;;;;;;;;;;10413905;28;20226;-76
2023/01/19 20:29:18;;;;;;;6.03;4.05;;;;;;;;;;10409278;28;20224;-72
2023/01/19 20:34:20;;;;;;;6.03;3.78;;;;;;;;;;10410498;28;20215;-77
2023/01/19 20:39:22;;;;;;;6.38;3.85;;;;;;;;;;10424058;28;20310;-74
2023/01/19 20:44:24;;;;;;;7.72;4.13;;;;;;;;;;10406330;28;20257;-75
2023/01/19 20:49:26;;;;;;;9.60;3.85;;;;;;;;;;10423175;28;20298;-76
2023/01/19 20:54:29;;;;;;;11.52;3.85;;;;;;;;;;10429986;28;20713;-76
2023/01/19 20:59:32;;;;;;;12.20;4.43;;;;;;;;;;10427675;28;20210;-75
2023/01/19 21:04:34;;;;;;;10.10;4.80;;;;;;;;;;10427541;28;20218;-75
2023/01/19 21:09:36;;;;;;;10.93;5.22;;;;;;;;;;10426369;28;20250;-75
2023/01/19 21:14:39;;;;;;;9.32;5.40;;;;;;;;;;10421165;28;21099;-75
2023/01/19 21:19:40;;;;;;;8.63;4.80;;;;;;;;;;10429523;28;20298;-75
2023/01/19 21:24:41;;;;;;;15.00;5.80;;;;;;;;;;10402763;28;20321;-76
2023/01/19 21:29:42;;;;;;;12.25;4.75;;;;;;;;;;10414794;28;20215;-74
2023/01/19 21:34:43;;;;;;;10.95;5.38;;;;;;;;;;10410147;28;20770;-75
2023/01/19 21:39:45;;;;;;;10.65;4.60;;;;;;;;;;10407257;28;20345;-75
2023/01/19 21:44:46;;;;;;;11.18;4.20;;;;;;;;;;10427060;28;20302;-76
2023/01/19 21:49:47;;;;;;;11.43;5.95;;;;;;;;;;10430653;28;20268;-75
2023/01/19 21:54:48;;;;;;;15.88;5.63;;;;;;;;;;10428890;28;20222;-76
2023/01/19 21:59:49;;;;;;;13.02;5.28;;;;;;;;;;10424286;28;20210;-74
2023/01/19 22:04:51;;;;;;;9.48;5.85;;;;;;;;;;10422773;28;20862;-75
2023/01/19 22:09:52;;;;;;;12.27;5.30;;;;;;;;;;10429759;28;20233;-75
2023/01/19 22:14:53;;;;;;;8.57;4.72;;;;;;;;;;10404769;28;20210;-75
2023/01/19 22:19:54;;;;;;;10.18;5.00;;;;;;;;;;10410271;28;20217;-75
2023/01/19 22:24:55;;;;;;;12.10;6.07;;;;;;;;;;10427204;28;20313;-74
2023/01/19 22:29:56;;;;;;;11.25;5.90;;;;;;;;;;10412458;28;20214;-74
2023/01/19 22:34:57;;;;;;;21.15;6.60;;;;;;;;;;10420212;28;20309;-75
2023/01/19 22:39:58;;;;;;;11.13;5.28;;;;;;;;;;10422582;28;20207;-74
2023/01/19 22:45:00;;;;;;;11.00;5.80;;;;;;;;;;10401009;28;20237;-73
2023/01/19 22:50:01;;;;;;;9.55;5.93;;;;;;;;;;10424922;28;20218;-75
2023/01/19 22:55:02;;;;;;;9.03;5.70;;;;;;;;;;10425913;28;20245;-75
2023/01/19 23:00:05;;;;;;;12.07;6.32;;;;;;;;;;10419743;28;20262;-74
2023/01/19 23:05:06;;;;;;;20.35;6.40;;;;;;;;;;10422548;28;20225;-75
2023/01/19 23:10:08;;;;;;;14.33;6.10;;;;;;;;;;10408418;28;20193;-75
2023/01/19 23:15:09;;;;;;;12.57;6.67;;;;;;;;;;10422687;28;20626;-75
2023/01/19 23:20:11;;;;;;;16.10;6.53;;;;;;;;;;10426049;28;20707;-75
2023/01/19 23:25:12;;;;;;;13.05;6.75;;;;;;;;;;10405616;28;20198;-75
2023/01/19 23:30:13;;;;;;;17.83;7.32;;;;;;;;;;10419947;28;20194;-75
2023/01/19 23:35:15;;;;;;;17.85;6.32;;;;;;;;;;10432822;28;20873;-75
2023/01/19 23:40:16;;;;;;;16.63;6.77;;;;;;;;;;10431026;28;20187;-75
2023/01/19 23:45:18;;;;;;;10.07;6.20;;;;;;;;;;10427850;28;20205;-75
2023/01/19 23:50:19;;;;;;;15.10;6.72;;;;;;;;;;10430503;28;20579;-78
2023/01/19 23:55:20;;;;;;;14.52;6.45;;;;;;;;;;10411550;28;20210;-75
